createdAt,value
2022-09-10T00:01:37.353Z,77.00
2022-09-10T00:04:11.528Z,77.30
2022-09-10T00:06:39.143Z,77.30
2022-09-10T00:09:07.700Z,77.60
2022-09-10T00:11:38.464Z,77.60
2022-09-10T00:14:08.313Z,77.70
2022-09-10T00:16:35.281Z,77.70
2022-09-10T00:19:02.549Z,77.80
2022-09-10T00:21:30.036Z,77.80
2022-09-10T00:23:57.709Z,77.80
2022-09-10T00:26:29.053Z,77.80
2022-09-10T00:29:01.315Z,77.80
2022-09-10T00:31:30.388Z,77.90
2022-09-10T00:33:59.857Z,77.90
2022-09-10T00:36:32.858Z,78.10
2022-09-10T00:39:05.627Z,78.10
2022-09-10T00:41:35.593Z,78.30
2022-09-10T00:44:07.299Z,78.40
2022-09-10T00:46:40.198Z,78.30
2022-09-10T00:49:21.398Z,78.30
2022-09-10T00:51:53.426Z,77.80
2022-09-10T00:54:24.883Z,78.00
2022-09-10T00:56:57.462Z,78.00
2022-09-10T00:59:26.654Z,77.80
2022-09-10T01:01:55.653Z,78.00
2022-09-10T01:04:22.910Z,78.00
2022-09-10T01:06:52.983Z,78.00
2022-09-10T01:09:23.836Z,78.10
2022-09-10T01:12:24.490Z,78.10
2022-09-10T01:15:42.810Z,77.50
2022-09-10T01:18:25.977Z,77.30
2022-09-10T01:21:22.057Z,78.30
2022-09-10T01:24:07.481Z,77.70
2022-09-10T01:27:19.508Z,77.30
2022-09-10T01:30:24.382Z,77.10
2022-09-10T01:33:27.789Z,77.40
2022-09-10T01:36:06.133Z,78.00
2022-09-10T01:38:38.436Z,79.20
2022-09-10T01:41:05.899Z,79.40
2022-09-10T01:43:33.765Z,79.60
2022-09-10T01:46:25.062Z,79.70
2022-09-10T01:49:10.572Z,79.50
2022-09-10T01:52:04.767Z,78.40
2022-09-10T01:55:01.487Z,79.50
2022-09-10T01:57:52.958Z,79.10
2022-09-10T02:00:22.183Z,79.80
2022-09-10T02:03:01.008Z,79.80
2022-09-10T02:05:31.434Z,79.60
2022-09-10T02:08:05.306Z,79.70
2022-09-10T02:10:32.257Z,79.70
2022-09-10T02:12:59.243Z,79.90
2022-09-10T02:15:29.493Z,79.80
2022-09-10T02:17:56.450Z,79.50
2022-09-10T02:20:23.818Z,79.40
2022-09-10T02:22:58.487Z,79.30
2022-09-10T02:25:33.251Z,79.00
2022-09-10T02:28:00.734Z,79.10
2022-09-10T02:30:27.485Z,79.10
2022-09-10T02:32:54.292Z,79.00
2022-09-10T02:35:21.185Z,78.80
2022-09-10T02:37:49.851Z,78.80
2022-09-10T02:40:19.479Z,78.60
2022-09-10T02:42:46.986Z,78.40
2022-09-10T02:45:14.712Z,78.30
2022-09-10T02:47:44.506Z,78.20
2022-09-10T02:50:11.657Z,78.40
2022-09-10T02:52:38.463Z,78.10
2022-09-10T02:55:05.926Z,78.20
2022-09-10T02:57:32.731Z,78.20
2022-09-10T02:59:59.490Z,78.30
2022-09-10T03:02:26.301Z,78.30
2022-09-10T03:04:53.102Z,78.40
2022-09-10T03:07:20.262Z,78.50
2022-09-10T03:09:47.547Z,78.60
2022-09-10T03:12:16.257Z,78.70
2022-09-10T03:14:43.863Z,78.80
2022-09-10T03:17:10.637Z,78.90
2022-09-10T03:19:37.398Z,79.00
2022-09-10T03:22:04.398Z,79.20
2022-09-10T03:24:31.241Z,79.30
2022-09-10T03:26:58.057Z,79.40
2022-09-10T03:29:24.929Z,79.50
2022-09-10T03:31:51.864Z,79.60
2022-09-10T03:34:18.979Z,79.70
2022-09-10T03:36:48.906Z,79.60
2022-09-10T03:39:16.299Z,79.60
2022-09-10T03:41:43.118Z,79.70
2022-09-10T03:44:10.262Z,79.80
2022-09-10T03:46:38.080Z,79.90
2022-09-10T03:49:08.526Z,79.90
2022-09-10T03:51:35.638Z,80.00
2022-09-10T03:54:02.555Z,80.00
2022-09-10T03:56:29.435Z,80.30
2022-09-10T03:58:57.368Z,80.20
2022-09-10T04:01:24.799Z,80.10
2022-09-10T04:03:56.686Z,80.00
2022-09-10T04:06:23.539Z,79.40
2022-09-10T04:08:54.679Z,80.10
2022-09-10T04:11:24.041Z,80.00
2022-09-10T04:13:51.387Z,79.90
2022-09-10T04:16:18.757Z,79.80
2022-09-10T04:18:45.845Z,79.50
2022-09-10T04:21:12.717Z,79.50
2022-09-10T04:23:42.678Z,79.40
2022-09-10T04:26:19.846Z,79.80
2022-09-10T04:28:47.116Z,77.90
2022-09-10T04:31:14.326Z,79.10
2022-09-10T04:33:41.258Z,79.10
2022-09-10T04:36:08.318Z,79.10
2022-09-10T04:38:40.087Z,78.90
2022-09-10T04:41:07.859Z,79.00
2022-09-10T04:43:35.496Z,78.70
2022-09-10T04:46:02.582Z,79.00
2022-09-10T04:48:29.514Z,78.90
2022-09-10T04:51:15.213Z,79.00
2022-09-10T04:53:43.616Z,78.90
2022-09-10T04:56:10.753Z,78.90
2022-09-10T04:58:39.170Z,78.70
2022-09-10T05:01:29.044Z,78.40
2022-09-10T05:03:55.805Z,78.60
2022-09-10T05:06:23.300Z,78.40
2022-09-10T05:08:50.737Z,78.30
2022-09-10T05:11:19.593Z,78.20
2022-09-10T05:13:46.887Z,78.10
2022-09-10T05:16:14.180Z,77.90
2022-09-10T05:18:41.460Z,77.70
2022-09-10T05:21:08.233Z,77.80
2022-09-10T05:23:35.080Z,77.70
2022-09-10T05:26:02.414Z,77.80
2022-09-10T05:28:29.202Z,77.80
2022-09-10T05:30:56.033Z,77.90
2022-09-10T05:33:22.806Z,78.20
2022-09-10T05:35:51.717Z,77.90
2022-09-10T05:38:19.177Z,78.20
2022-09-10T05:40:46.092Z,78.00
2022-09-10T05:43:12.907Z,78.10
2022-09-10T05:45:39.759Z,78.00
2022-09-10T05:48:06.611Z,78.10
2022-09-10T05:50:33.423Z,77.70
2022-09-10T05:53:01.128Z,77.60
2022-09-10T05:55:31.208Z,77.40
2022-09-10T05:57:58.493Z,77.40
2022-09-10T06:00:25.560Z,77.30
2022-09-10T06:02:53.320Z,77.60
2022-09-10T06:05:23.158Z,77.70
2022-09-10T06:07:51.085Z,77.70
2022-09-10T06:10:18.435Z,77.90
2022-09-10T06:12:51.935Z,78.20
2022-09-10T06:15:21.162Z,78.40
2022-09-10T06:17:48.364Z,78.50
2022-09-10T06:20:15.628Z,78.60
2022-09-10T06:22:42.516Z,78.60
2022-09-10T06:25:09.703Z,77.60
2022-09-10T06:27:36.541Z,77.60
2022-09-10T06:30:03.816Z,77.80
2022-09-10T06:32:32.193Z,78.30
2022-09-10T06:34:58.965Z,78.60
2022-09-10T06:37:26.951Z,79.00
2022-09-10T06:39:53.891Z,79.30
2022-09-10T06:42:20.691Z,79.40
2022-09-10T06:44:47.466Z,79.70
2022-09-10T06:50:01.462Z,80.40
2022-09-10T06:52:31.118Z,80.60
2022-09-10T06:54:59.165Z,80.90
2022-09-10T06:57:26.656Z,81.20
2022-09-10T06:59:53.505Z,81.30
2022-09-10T07:02:20.315Z,81.70
2022-09-10T07:04:47.153Z,81.80
2022-09-10T07:07:14.980Z,82.10
2022-09-10T07:09:41.746Z,82.40
2022-09-10T07:12:09.425Z,82.50
2022-09-10T07:14:36.220Z,82.80
2022-09-10T07:17:03.031Z,83.10
2022-09-10T07:19:30.738Z,83.10
2022-09-10T07:21:57.530Z,82.80
2022-09-10T07:24:24.315Z,83.00
2022-09-10T07:26:51.465Z,83.00
2022-09-10T07:29:18.376Z,83.20
2022-09-10T07:31:47.216Z,83.40
2022-09-10T07:34:14.207Z,83.60
2022-09-10T07:36:41.025Z,83.80
2022-09-10T07:39:10.331Z,84.20
2022-09-10T07:41:37.160Z,84.30
2022-09-10T07:44:04.111Z,84.20
2022-09-10T07:46:30.959Z,83.90
2022-09-10T07:49:00.553Z,84.20
2022-09-10T07:51:30.229Z,84.10
2022-09-10T07:53:59.406Z,84.60
2022-09-10T07:56:26.601Z,84.50
2022-09-10T07:58:57.431Z,84.30
2022-09-10T08:01:24.269Z,83.90
2022-09-10T08:03:51.570Z,80.10
2022-09-10T08:06:19.396Z,82.60
2022-09-10T08:08:46.185Z,82.50
2022-09-10T08:11:17.391Z,82.70
2022-09-10T08:13:50.679Z,82.40
2022-09-10T08:16:23.027Z,83.00
2022-09-10T08:18:51.209Z,84.30
2022-09-10T08:21:19.490Z,84.50
2022-09-10T08:23:51.705Z,83.60
2022-09-10T08:26:20.071Z,82.90
2022-09-10T08:28:47.902Z,83.40
2022-09-10T08:31:16.245Z,83.50
2022-09-10T08:33:50.525Z,83.50
2022-09-10T08:36:18.468Z,83.00
2022-09-10T08:38:46.409Z,83.80
2022-09-10T08:41:36.178Z,83.80
2022-09-10T08:44:31.328Z,83.30
2022-09-10T08:47:10.442Z,82.90
2022-09-10T08:49:46.070Z,83.20
2022-09-10T08:52:27.832Z,84.60
2022-09-10T08:55:19.091Z,86.40
2022-09-10T08:57:50.532Z,84.50
2022-09-10T09:00:24.408Z,87.50
2022-09-10T09:03:23.097Z,87.20
2022-09-10T09:05:58.869Z,85.80
2022-09-10T09:08:33.255Z,85.40
2022-09-10T09:11:39.477Z,85.50
2022-09-10T09:14:09.287Z,81.80
2022-09-10T09:16:41.340Z,85.20
2022-09-10T09:19:17.183Z,82.50
2022-09-10T09:21:52.124Z,83.20
2022-09-10T09:24:57.366Z,83.50
2022-09-10T09:27:32.043Z,82.70
2022-09-10T09:30:17.177Z,82.70
2022-09-10T09:32:47.086Z,80.40
2022-09-10T09:35:32.365Z,80.00
2022-09-10T09:38:08.176Z,79.20
2022-09-10T09:40:58.753Z,78.90
2022-09-10T09:43:44.911Z,78.60
2022-09-10T09:46:18.435Z,82.60
2022-09-10T09:48:47.456Z,81.80
2022-09-10T09:51:21.277Z,82.50
2022-09-10T09:54:56.615Z,81.70
2022-09-10T09:57:20.403Z,78.80
2022-09-10T09:59:49.731Z,78.20
2022-09-10T10:02:23.964Z,79.50
2022-09-10T10:05:24.847Z,78.90
2022-09-10T10:07:52.660Z,78.40
2022-09-10T10:10:28.627Z,80.30
2022-09-10T10:12:56.160Z,79.00
2022-09-10T10:15:42.353Z,79.80
2022-09-10T10:18:31.630Z,76.90
2022-09-10T10:21:30.091Z,75.90
2022-09-10T10:23:57.121Z,77.30
2022-09-10T10:26:28.451Z,79.90
2022-09-10T10:29:16.317Z,81.00
2022-09-10T10:31:48.255Z,82.10
2022-09-10T10:34:54.869Z,82.90
2022-09-10T10:38:07.929Z,84.20
2022-09-10T10:40:43.367Z,83.90
2022-09-10T10:43:51.026Z,84.40
2022-09-10T10:46:23.895Z,83.60
2022-09-10T10:49:32.707Z,84.80
2022-09-10T10:52:21.080Z,84.60
2022-09-10T10:55:50.365Z,87.60
2022-09-10T10:58:20.217Z,86.10
2022-09-10T11:00:57.673Z,89.10
2022-09-10T11:03:37.618Z,88.20
2022-09-10T11:06:14.236Z,87.60
2022-09-10T11:08:50.772Z,88.90
2022-09-10T11:11:31.659Z,89.30
2022-09-10T11:14:07.070Z,88.00
2022-09-10T11:16:41.550Z,82.40
2022-09-10T11:19:38.374Z,88.20
2022-09-10T11:22:30.029Z,85.50
2022-09-10T11:25:02.189Z,81.50
2022-09-10T11:27:41.721Z,85.10
2022-09-10T11:30:16.399Z,84.70
2022-09-10T11:33:02.591Z,82.60
2022-09-10T11:35:39.486Z,84.30
2022-09-10T11:38:32.460Z,82.90
2022-09-10T11:41:18.392Z,76.60
2022-09-10T11:44:17.915Z,83.60
2022-09-10T11:47:15.769Z,84.90
2022-09-10T11:50:03.848Z,82.30
2022-09-10T11:52:34.753Z,83.50
2022-09-10T11:55:03.951Z,82.30
2022-09-10T11:58:02.816Z,75.30
2022-09-10T12:00:36.971Z,74.10
2022-09-10T12:03:30.469Z,81.80
2022-09-10T12:06:26.577Z,72.70
2022-09-10T12:09:03.948Z,76.30
2022-09-10T12:12:03.475Z,81.00
2022-09-10T12:14:30.917Z,74.10
2022-09-10T12:17:27.173Z,82.50
2022-09-10T12:19:58.082Z,76.60
2022-09-10T12:22:27.261Z,80.80
2022-09-10T12:24:59.244Z,80.30
2022-09-10T12:28:01.253Z,80.00
2022-09-10T12:30:29.081Z,73.20
2022-09-10T12:33:02.021Z,79.60
2022-09-10T12:35:31.571Z,79.10
2022-09-10T12:38:50.034Z,76.10
2022-09-10T12:41:27.089Z,71.00
2022-09-10T12:44:02.123Z,71.80
2022-09-10T12:46:31.433Z,73.60
2022-09-10T12:49:01.386Z,77.90
2022-09-10T12:51:49.846Z,75.50
2022-09-10T12:54:56.522Z,76.00
2022-09-10T12:57:31.036Z,74.70
2022-09-10T13:00:25.890Z,77.80
2022-09-10T13:02:58.707Z,66.80
2022-09-10T13:05:56.573Z,76.20
2022-09-10T13:08:47.697Z,69.40
2022-09-10T13:11:23.385Z,69.10
2022-09-10T13:14:00.687Z,76.80
2022-09-10T13:16:27.494Z,77.00
2022-09-10T13:19:13.382Z,77.80
2022-09-10T13:21:43.213Z,77.30
2022-09-10T13:24:35.572Z,76.20
2022-09-10T13:27:39.822Z,65.70
2022-09-10T13:30:20.832Z,67.10
2022-09-10T13:33:04.736Z,66.70
2022-09-10T13:36:01.470Z,74.20
2022-09-10T13:39:07.677Z,66.90
2022-09-10T13:42:12.827Z,77.90
2022-09-10T13:45:13.274Z,60.50
2022-09-10T13:48:02.397Z,70.40
2022-09-10T13:50:55.783Z,70.60
2022-09-10T13:53:26.319Z,66.20
2022-09-10T13:56:11.164Z,75.00
2022-09-10T13:58:49.746Z,65.00
2022-09-10T14:01:17.514Z,69.10
2022-09-10T14:03:45.345Z,72.90
2022-09-10T14:06:23.946Z,70.70
2022-09-10T14:09:02.808Z,57.90
2022-09-10T14:11:35.531Z,62.90
2022-09-10T14:14:09.573Z,66.80
2022-09-10T14:16:53.996Z,63.10
2022-09-10T14:19:39.949Z,58.50
2022-09-10T14:22:10.092Z,64.10
2022-09-10T14:24:39.711Z,67.70
2022-09-10T14:27:35.062Z,66.70
2022-09-10T14:30:26.233Z,67.60
2022-09-10T14:32:53.563Z,59.80
2022-09-10T14:35:39.348Z,71.10
2022-09-10T14:38:26.438Z,66.30
2022-09-10T14:41:18.061Z,67.70
2022-09-10T14:43:45.429Z,67.00
2022-09-10T14:46:51.507Z,81.40
2022-09-10T14:49:29.145Z,68.90
2022-09-10T14:51:58.467Z,70.40
2022-09-10T14:54:30.884Z,67.40
2022-09-10T14:57:04.135Z,63.10
2022-09-10T14:59:38.512Z,66.20
2022-09-10T15:02:28.464Z,60.10
2022-09-10T15:04:55.753Z,53.20
2022-09-10T15:07:25.490Z,65.30
2022-09-10T15:09:53.501Z,64.00
2022-09-10T15:12:30.940Z,66.10
2022-09-10T15:14:58.450Z,52.90
2022-09-10T15:17:25.650Z,61.70
2022-09-10T15:19:53.473Z,59.70
2022-09-10T15:22:27.751Z,56.60
2022-09-10T15:25:09.741Z,54.80
2022-09-10T15:27:37.538Z,54.10
2022-09-10T15:30:05.717Z,53.50
2022-09-10T15:32:32.489Z,54.70
2022-09-10T15:34:59.349Z,54.70
2022-09-10T15:37:27.050Z,55.00
2022-09-10T15:39:54.586Z,54.30
2022-09-10T15:42:21.530Z,54.60
2022-09-10T15:44:48.328Z,55.20
2022-09-10T15:47:15.087Z,56.20
2022-09-10T15:49:41.845Z,57.30
2022-09-10T15:52:09.948Z,58.20
2022-09-10T15:54:36.724Z,59.10
2022-09-10T15:57:03.691Z,59.80
2022-09-10T15:59:30.554Z,59.70
2022-09-10T16:01:57.430Z,60.00
2022-09-10T16:04:25.069Z,61.00
2022-09-10T16:06:52.057Z,62.20
2022-09-10T16:09:18.894Z,63.70
2022-09-10T16:11:45.758Z,65.30
2022-09-10T16:14:16.667Z,67.00
2022-09-10T16:16:43.409Z,67.40
2022-09-10T16:19:13.098Z,65.80
2022-09-10T16:21:40.536Z,69.00
2022-09-10T16:24:08.067Z,70.20
2022-09-10T16:26:39.042Z,71.20
2022-09-10T16:29:16.428Z,71.80
2022-09-10T16:31:45.981Z,72.20
2022-09-10T16:34:17.449Z,73.50
2022-09-10T16:36:48.429Z,73.70
2022-09-10T16:39:17.330Z,74.50
2022-09-10T16:41:49.551Z,75.00
2022-09-10T16:44:18.406Z,75.20
2022-09-10T16:46:46.977Z,75.30
2022-09-10T16:49:17.197Z,75.60
2022-09-10T16:51:46.866Z,76.70
2022-09-10T16:54:15.845Z,79.00
2022-09-10T16:56:46.106Z,79.60
2022-09-10T16:59:23.797Z,78.30
2022-09-10T17:01:52.015Z,76.30
2022-09-10T17:04:29.035Z,77.10
2022-09-10T17:06:57.826Z,77.30
2022-09-10T17:09:25.170Z,76.60
2022-09-10T17:11:53.435Z,76.70
2022-09-10T17:14:20.241Z,76.50
2022-09-10T17:16:48.381Z,76.50
2022-09-10T17:19:23.638Z,76.30
2022-09-10T17:21:53.085Z,75.90
2022-09-10T17:24:25.698Z,76.40
2022-09-10T17:26:55.001Z,76.40
2022-09-10T17:29:25.813Z,76.60
2022-09-10T17:31:52.785Z,76.30
2022-09-10T17:34:21.497Z,76.70
2022-09-10T17:36:51.416Z,76.90
2022-09-10T17:39:19.146Z,77.10
2022-09-10T17:41:46.321Z,77.30
2022-09-10T17:44:14.592Z,77.40
2022-09-10T17:46:42.830Z,77.50
2022-09-10T17:49:14.047Z,77.80
2022-09-10T17:51:42.062Z,77.60
2022-09-10T17:54:09.457Z,78.00
2022-09-10T17:56:38.031Z,78.10
2022-09-10T17:59:06.255Z,78.40
2022-09-10T18:01:39.901Z,78.50
2022-09-10T18:04:09.414Z,78.30
2022-09-10T18:06:37.706Z,78.50
2022-09-10T18:09:06.278Z,78.60
2022-09-10T18:11:38.267Z,78.50
2022-09-10T18:14:06.080Z,78.50
2022-09-10T18:16:36.110Z,78.60
2022-09-10T18:19:13.845Z,78.50
2022-09-10T18:21:42.350Z,78.10
2022-09-10T18:24:21.147Z,78.80
2022-09-10T18:26:50.038Z,77.80
2022-09-10T18:29:20.159Z,78.90
2022-09-10T18:31:55.686Z,78.80
2022-09-10T18:34:26.964Z,78.70
2022-09-10T18:36:57.739Z,79.00
2022-09-10T18:39:26.506Z,78.90
2022-09-10T18:41:53.793Z,75.90
2022-09-10T18:44:27.769Z,79.10
2022-09-10T18:46:55.978Z,78.20
2022-09-10T18:49:25.222Z,79.20
2022-09-10T18:51:54.711Z,79.20
2022-09-10T18:54:23.255Z,79.30
2022-09-10T18:56:50.938Z,79.30
2022-09-10T18:59:20.816Z,79.30
2022-09-10T19:01:50.057Z,79.30
2022-09-10T19:04:23.793Z,79.50
2022-09-10T19:06:51.428Z,79.20
2022-09-10T19:09:25.167Z,79.40
2022-09-10T19:11:54.234Z,78.70
2022-09-10T19:14:30.925Z,79.40
2022-09-10T19:17:00.336Z,78.20
2022-09-10T19:19:31.725Z,79.40
2022-09-10T19:22:03.293Z,79.40
2022-09-10T19:24:56.480Z,79.10
2022-09-10T19:27:17.964Z,79.40
2022-09-10T19:29:47.198Z,79.50
2022-09-10T19:32:15.108Z,79.40
2022-09-10T19:34:42.729Z,79.40
2022-09-10T19:37:09.768Z,79.40
2022-09-10T19:39:36.694Z,79.50
2022-09-10T19:42:04.229Z,79.50
2022-09-10T19:44:31.056Z,79.70
2022-09-10T19:46:58.659Z,79.80
2022-09-10T19:49:25.482Z,79.80
2022-09-10T19:51:52.307Z,79.70
2022-09-10T19:54:19.330Z,79.70
2022-09-10T19:56:46.322Z,79.80
2022-09-10T19:59:14.459Z,79.80
2022-09-10T20:01:43.655Z,79.80
2022-09-10T20:04:12.615Z,79.70
2022-09-10T20:06:39.698Z,79.50
2022-09-10T20:09:09.842Z,79.60
2022-09-10T20:11:37.888Z,79.40
2022-09-10T20:14:14.176Z,79.30
2022-09-10T20:16:44.873Z,78.50
2022-09-10T20:19:16.431Z,79.10
2022-09-10T20:21:43.208Z,79.00
2022-09-10T20:24:10.532Z,79.00
2022-09-10T20:26:39.803Z,79.20
2022-09-10T20:29:13.301Z,79.00
2022-09-10T20:31:42.328Z,78.80
2022-09-10T20:34:14.943Z,79.00
2022-09-10T20:36:42.555Z,78.60
2022-09-10T20:39:12.110Z,79.00
2022-09-10T20:41:40.056Z,79.10
2022-09-10T20:44:07.128Z,79.20
2022-09-10T20:46:34.922Z,79.40
2022-09-10T20:49:03.235Z,79.80
2022-09-10T20:51:36.618Z,80.10
2022-09-10T20:54:05.656Z,79.50
2022-09-10T20:56:32.664Z,80.20
2022-09-10T20:58:59.867Z,80.40
2022-09-10T21:01:28.718Z,80.70
2022-09-10T21:04:00.098Z,80.80
2022-09-10T21:06:31.368Z,80.70
2022-09-10T21:08:59.212Z,80.40
2022-09-10T21:11:29.390Z,80.60
2022-09-10T21:13:59.069Z,80.70
2022-09-10T21:16:35.260Z,80.60
2022-09-10T21:19:13.896Z,80.20
2022-09-10T21:21:42.640Z,80.10
2022-09-10T21:24:15.979Z,81.10
2022-09-10T21:26:43.642Z,80.90
2022-09-10T21:29:17.418Z,81.50
2022-09-10T21:31:45.421Z,81.50
2022-09-10T21:34:13.383Z,81.60
2022-09-10T21:36:42.782Z,81.50
2022-09-10T21:39:15.989Z,81.40
2022-09-10T21:41:49.103Z,81.00
2022-09-10T21:44:22.940Z,81.30
2022-09-10T21:46:50.910Z,80.90
2022-09-10T21:49:20.226Z,81.50
2022-09-10T21:51:47.696Z,81.70
2022-09-10T21:54:23.062Z,81.70
2022-09-10T21:56:51.952Z,81.30
2022-09-10T21:59:19.376Z,81.70
2022-09-10T22:01:47.831Z,81.70
2022-09-10T22:04:20.228Z,81.80
2022-09-10T22:06:49.630Z,81.80
2022-09-10T22:09:37.253Z,82.00
2022-09-10T22:12:04.376Z,82.00
2022-09-10T22:14:31.227Z,82.00
2022-09-10T22:16:59.955Z,82.00
2022-09-10T22:19:27.296Z,82.20
2022-09-10T22:21:55.984Z,82.20
2022-09-10T22:24:22.921Z,82.10
2022-09-10T22:26:50.360Z,82.20
2022-09-10T22:29:19.609Z,82.30
2022-09-10T22:31:47.804Z,82.20
2022-09-10T22:34:17.705Z,82.20
2022-09-10T22:36:46.986Z,82.20
2022-09-10T22:39:21.979Z,82.30
2022-09-10T22:41:51.203Z,82.30
2022-09-10T22:44:19.306Z,82.40
2022-09-10T22:46:46.302Z,82.40
2022-09-10T22:49:15.466Z,82.50
2022-09-10T22:51:43.264Z,82.50
2022-09-10T22:54:11.376Z,82.50
2022-09-10T22:56:38.348Z,82.30
2022-09-10T22:59:06.829Z,82.40
2022-09-10T23:01:38.131Z,82.40
2022-09-10T23:04:08.068Z,81.90
2022-09-10T23:06:37.952Z,82.30
2022-09-10T23:09:13.820Z,82.10
2022-09-10T23:11:42.366Z,81.90
2022-09-10T23:14:17.718Z,82.00
2022-09-10T23:16:51.797Z,81.70
2022-09-10T23:19:22.620Z,82.50
2022-09-10T23:21:52.620Z,81.90
2022-09-10T23:24:24.155Z,81.90
2022-09-10T23:26:51.365Z,81.80
2022-09-10T23:29:18.659Z,82.20
2022-09-10T23:31:47.162Z,82.20
2022-09-10T23:34:17.837Z,82.10
2022-09-10T23:36:47.120Z,82.00
2022-09-10T23:39:24.856Z,82.10
2022-09-10T23:41:56.738Z,81.30
2022-09-10T23:44:24.306Z,82.10
2022-09-10T23:46:51.374Z,82.80
2022-09-10T23:49:18.141Z,82.40
2022-09-10T23:51:45.499Z,82.30
2022-09-10T23:54:12.654Z,82.40
2022-09-10T23:56:40.100Z,82.50
2022-09-10T23:59:07.544Z,82.40
